createdAt,value
2018-11-06T00:02:22.497Z,49.80
2018-11-06T00:04:57.879Z,49.30
2018-11-06T00:07:28.098Z,49.50
2018-11-06T00:10:00.293Z,49.80
2018-11-06T00:12:30.362Z,49.50
2018-11-06T00:15:01.993Z,49.50
2018-11-06T00:17:32.740Z,49.60
2018-11-06T00:20:02.697Z,49.80
2018-11-06T00:22:33.810Z,49.90
2018-11-06T00:25:05.082Z,49.60
2018-11-06T00:27:37.654Z,49.80
2018-11-06T00:30:25.692Z,49.60
2018-11-06T00:36:13.194Z,49.60
2018-11-06T00:38:43.364Z,49.60
2018-11-06T00:41:13.517Z,49.80
2018-11-06T00:43:43.940Z,49.90
2018-11-06T00:46:14.126Z,49.60
2018-11-06T00:48:44.344Z,49.80
2018-11-06T00:51:15.841Z,49.80
2018-11-06T00:53:48.905Z,50.20
2018-11-06T00:59:12.256Z,50.40
2018-11-06T01:01:41.438Z,50.20
2018-11-06T01:04:12.374Z,50.40
2018-11-06T01:06:54.072Z,49.90
2018-11-06T01:09:23.963Z,49.90
2018-11-06T01:11:53.475Z,49.80
2018-11-06T01:14:22.798Z,49.80
2018-11-06T01:16:51.697Z,50.10
2018-11-06T01:19:20.603Z,49.90
2018-11-06T01:21:49.501Z,49.90
2018-11-06T01:24:18.759Z,50.10
2018-11-06T01:26:47.679Z,49.80
2018-11-06T01:29:16.855Z,49.80
2018-11-06T01:31:46.031Z,50.10
2018-11-06T01:34:15.103Z,50.50
2018-11-06T01:36:44.139Z,50.80
2018-11-06T01:39:13.823Z,50.90
2018-11-06T01:41:42.992Z,51.40
2018-11-06T01:44:12.179Z,51.50
2018-11-06T01:46:42.717Z,51.50
2018-11-06T01:49:12.027Z,51.70
2018-11-06T01:51:41.272Z,51.70
2018-11-06T01:54:10.166Z,51.80
2018-11-06T01:56:39.522Z,51.70
2018-11-06T01:59:08.423Z,52.00
2018-11-06T02:01:37.332Z,52.30
2018-11-06T02:04:06.226Z,52.10
2018-11-06T02:06:35.371Z,52.10
2018-11-06T02:09:06.539Z,52.10
2018-11-06T02:11:35.748Z,52.10
2018-11-06T02:14:05.587Z,52.10
2018-11-06T02:16:34.566Z,52.10
2018-11-06T02:19:03.484Z,52.70
2018-11-06T02:21:32.393Z,52.70
2018-11-06T02:24:01.552Z,52.40
2018-11-06T02:26:37.631Z,52.40
2018-11-06T02:29:08.204Z,52.30
2018-11-06T02:31:37.132Z,52.10
2018-11-06T02:34:06.622Z,52.00
2018-11-06T02:36:35.523Z,52.10
2018-11-06T02:39:05.470Z,52.30
2018-11-06T02:41:34.618Z,52.40
2018-11-06T02:44:04.151Z,52.60
2018-11-06T02:46:33.283Z,52.60
2018-11-06T02:49:02.185Z,52.70
2018-11-06T02:51:31.378Z,52.70
2018-11-06T02:54:00.267Z,52.70
2018-11-06T02:56:29.419Z,52.60
2018-11-06T02:58:58.319Z,52.40
2018-11-06T03:01:27.571Z,52.30
2018-11-06T03:03:56.500Z,52.10
2018-11-06T03:06:25.425Z,52.30
2018-11-06T03:08:54.650Z,52.10
2018-11-06T03:11:23.550Z,51.80
2018-11-06T03:13:52.696Z,51.50
2018-11-06T03:16:22.516Z,51.40
2018-11-06T03:18:52.101Z,51.20
2018-11-06T03:21:21.013Z,51.10
2018-11-06T03:23:50.193Z,51.20
2018-11-06T03:26:19.361Z,51.20
2018-11-06T03:28:48.285Z,51.10
2018-11-06T03:31:17.682Z,50.90
2018-11-06T03:33:46.852Z,51.10
2018-11-06T03:36:16.326Z,51.50
2018-11-06T03:38:45.249Z,51.70
2018-11-06T03:41:14.242Z,51.80
2018-11-06T03:43:43.154Z,51.80
2018-11-06T03:46:12.073Z,52.30
2018-11-06T03:48:41.585Z,52.70
2018-11-06T03:51:10.776Z,52.60
2018-11-06T03:53:39.932Z,52.60
2018-11-06T03:56:09.337Z,52.60
2018-11-06T03:58:38.535Z,52.60
2018-11-06T04:01:07.979Z,52.70
2018-11-06T04:03:36.899Z,52.60
2018-11-06T04:06:05.930Z,52.90
2018-11-06T04:08:35.183Z,53.20
2018-11-06T04:11:04.085Z,53.20
2018-11-06T04:13:32.990Z,53.50
2018-11-06T04:16:01.925Z,53.60
2018-11-06T04:18:30.914Z,53.80
2018-11-06T04:20:59.941Z,53.90
2018-11-06T04:23:28.851Z,54.30
2018-11-06T04:25:57.800Z,54.50
2018-11-06T04:28:27.172Z,54.50
2018-11-06T04:30:56.159Z,54.60
2018-11-06T04:33:25.061Z,54.60
2018-11-06T04:35:54.264Z,54.60
2018-11-06T04:38:23.387Z,54.50
2018-11-06T04:40:52.878Z,54.10
2018-11-06T04:43:21.952Z,53.90
2018-11-06T04:45:50.846Z,54.10
2018-11-06T04:48:19.767Z,54.60
2018-11-06T04:50:48.727Z,54.80
2018-11-06T04:53:17.843Z,54.90
2018-11-06T04:55:46.823Z,55.20
2018-11-06T04:58:15.783Z,55.40
2018-11-06T05:00:45.096Z,55.70
2018-11-06T05:03:14.233Z,55.70
2018-11-06T05:05:43.429Z,55.70
2018-11-06T05:08:12.343Z,55.80
2018-11-06T05:10:41.535Z,55.70
2018-11-06T05:13:10.487Z,55.70
2018-11-06T05:15:39.674Z,55.80
2018-11-06T05:18:08.763Z,55.80
2018-11-06T05:20:38.825Z,55.80
2018-11-06T05:23:09.006Z,55.80
2018-11-06T05:25:40.280Z,55.80
2018-11-06T05:28:10.317Z,56.00
2018-11-06T05:30:41.029Z,55.80
2018-11-06T05:33:43.545Z,55.70
2018-11-06T05:36:15.287Z,55.70
2018-11-06T05:38:45.600Z,55.40
2018-11-06T05:41:15.630Z,55.10
2018-11-06T05:43:45.561Z,55.10
2018-11-06T05:46:15.928Z,54.80
2018-11-06T05:48:46.063Z,54.50
2018-11-06T05:51:19.513Z,53.90
2018-11-06T05:53:53.471Z,54.20
2018-11-06T05:56:58.369Z,54.60
2018-11-06T05:59:34.268Z,54.30
2018-11-06T06:02:05.088Z,54.60
2018-11-06T06:04:35.256Z,54.50
2018-11-06T06:07:05.425Z,54.50
2018-11-06T06:09:36.083Z,54.50
2018-11-06T06:12:07.841Z,54.30
2018-11-06T06:14:37.995Z,54.50
2018-11-06T06:17:08.302Z,54.90
2018-11-06T06:19:38.418Z,55.20
2018-11-06T06:22:09.197Z,55.50
2018-11-06T06:24:39.324Z,55.80
2018-11-06T06:27:08.758Z,56.00
2018-11-06T06:29:38.213Z,56.10
2018-11-06T06:32:08.326Z,56.10
2018-11-06T06:34:38.682Z,56.10
2018-11-06T06:37:08.397Z,56.10
2018-11-06T06:39:38.437Z,56.40
2018-11-06T06:42:08.879Z,56.60
2018-11-06T06:45:09.794Z,56.40
2018-11-06T06:48:05.305Z,56.30
2018-11-06T06:50:34.787Z,55.70
2018-11-06T06:53:03.703Z,55.80
2018-11-06T06:55:33.558Z,55.40
2018-11-06T06:58:02.949Z,55.20
2018-11-06T07:00:53.053Z,62.10
2018-11-06T07:03:23.166Z,61.70
2018-11-06T07:06:06.181Z,62.60
2018-11-06T07:08:36.361Z,60.00
2018-11-06T07:11:23.956Z,58.50
2018-11-06T07:17:20.763Z,56.90
2018-11-06T07:19:51.590Z,57.00
2018-11-06T07:22:23.296Z,56.30
2018-11-06T07:24:53.840Z,55.50
2018-11-06T07:27:25.098Z,57.40
2018-11-06T07:29:57.024Z,60.00
2018-11-06T07:32:27.556Z,56.90
2018-11-06T07:34:59.592Z,57.20
2018-11-06T07:37:32.527Z,55.70
2018-11-06T07:40:07.157Z,55.20
2018-11-06T07:42:37.698Z,57.40
2018-11-06T07:45:11.555Z,62.20
2018-11-06T07:47:41.899Z,58.60
2018-11-06T07:50:14.815Z,57.60
2018-11-06T07:52:45.161Z,56.70
2018-11-06T07:55:17.936Z,55.80
2018-11-06T07:57:48.757Z,54.60
2018-11-06T08:00:21.859Z,53.50
2018-11-06T08:02:51.895Z,52.60
2018-11-06T08:05:21.848Z,51.80
2018-11-06T08:07:54.679Z,50.80
2018-11-06T08:10:28.774Z,48.60
2018-11-06T08:12:59.467Z,48.70
2018-11-06T08:15:30.110Z,48.40
2018-11-06T08:18:01.725Z,48.90
2018-11-06T08:20:32.615Z,49.30
2018-11-06T08:23:02.670Z,49.60
2018-11-06T08:25:32.925Z,49.80
2018-11-06T08:28:03.821Z,49.50
2018-11-06T08:30:34.362Z,49.50
2018-11-06T08:33:05.103Z,48.10
2018-11-06T08:35:36.185Z,46.40
2018-11-06T08:38:07.298Z,44.60
2018-11-06T08:40:38.070Z,44.00
2018-11-06T08:43:12.285Z,43.40
2018-11-06T08:45:43.891Z,42.50
2018-11-06T08:48:15.313Z,41.50
2018-11-06T08:50:47.129Z,40.70
2018-11-06T08:53:19.199Z,39.70
2018-11-06T08:55:49.700Z,38.50
2018-11-06T08:58:21.866Z,38.70
2018-11-06T09:00:55.112Z,37.20
2018-11-06T09:03:27.442Z,35.90
2018-11-06T09:06:00.262Z,34.40
2018-11-06T09:08:31.874Z,33.40
2018-11-06T09:11:01.301Z,32.30
2018-11-06T09:13:37.354Z,31.60
2018-11-06T09:16:06.594Z,30.70
2018-11-06T09:18:35.921Z,30.10
2018-11-06T09:21:05.223Z,29.80
2018-11-06T09:23:34.309Z,29.40
2018-11-06T09:26:03.211Z,29.10
2018-11-06T09:28:32.395Z,28.80
2018-11-06T09:31:01.412Z,28.40
2018-11-06T09:33:30.905Z,28.20
2018-11-06T09:35:59.830Z,27.80
2018-11-06T09:38:28.840Z,27.60
2018-11-06T09:40:57.787Z,27.20
2018-11-06T09:43:26.707Z,27.00
2018-11-06T09:45:55.642Z,26.00
2018-11-06T09:48:25.164Z,25.50
2018-11-06T09:50:54.431Z,25.10
2018-11-06T09:53:23.311Z,24.90
2018-11-06T09:55:52.279Z,24.80
2018-11-06T09:58:21.508Z,24.80
2018-11-06T10:00:50.759Z,25.10
2018-11-06T10:03:20.094Z,25.00
2018-11-06T10:05:49.310Z,24.90
2018-11-06T10:08:18.242Z,24.70
2018-11-06T10:10:47.132Z,24.60
2018-11-06T10:13:16.038Z,24.30
2018-11-06T10:15:44.972Z,24.20
2018-11-06T10:18:13.919Z,24.00
2018-11-06T10:20:42.837Z,23.80
2018-11-06T10:23:12.026Z,23.70
2018-11-06T10:25:41.367Z,23.70
2018-11-06T10:28:10.249Z,23.50
2018-11-06T10:30:39.194Z,23.50
2018-11-06T10:33:08.123Z,23.40
2018-11-06T10:35:37.033Z,23.30
2018-11-06T10:38:06.204Z,23.50
2018-11-06T10:40:35.135Z,24.30
2018-11-06T10:43:04.095Z,24.30
2018-11-06T10:47:27.740Z,26.00
2018-11-06T10:49:57.206Z,26.20
2018-11-06T10:52:26.403Z,27.00
2018-11-06T10:54:55.369Z,26.30
2018-11-06T10:57:24.360Z,26.30
2018-11-06T10:59:53.266Z,26.30
2018-11-06T11:02:27.726Z,26.20
2018-11-06T11:04:56.669Z,26.10
2018-11-06T11:07:25.575Z,26.00
2018-11-06T11:09:55.318Z,26.10
2018-11-06T11:12:24.287Z,25.90
2018-11-06T11:14:53.248Z,25.90
2018-11-06T11:17:22.547Z,25.80
2018-11-06T11:19:52.667Z,25.70
2018-11-06T11:22:21.661Z,25.60
2018-11-06T11:24:50.639Z,25.40
2018-11-06T11:27:19.675Z,25.30
2018-11-06T11:29:48.587Z,25.30
2018-11-06T11:32:17.908Z,25.20
2018-11-06T11:34:46.838Z,25.10
2018-11-06T11:37:15.763Z,25.00
2018-11-06T11:39:44.729Z,25.00
2018-11-06T11:42:13.816Z,24.90
2018-11-06T11:44:42.979Z,24.90
2018-11-06T11:47:11.995Z,24.90
2018-11-06T11:49:41.039Z,24.90
2018-11-06T11:52:10.428Z,24.90
2018-11-06T11:54:39.352Z,24.90
2018-11-06T11:57:08.657Z,24.80
2018-11-06T11:59:37.714Z,24.80
2018-11-06T12:02:06.739Z,24.80
2018-11-06T12:04:35.751Z,24.80
2018-11-06T12:07:05.078Z,24.80
2018-11-06T12:09:34.170Z,24.90
2018-11-06T12:12:03.056Z,24.90
2018-11-06T12:14:32.028Z,24.90
2018-11-06T12:17:00.947Z,25.00
2018-11-06T12:19:29.907Z,24.90
2018-11-06T12:21:58.886Z,25.00
2018-11-06T12:24:27.975Z,25.00
2018-11-06T12:26:56.893Z,25.00
2018-11-06T12:29:25.811Z,25.00
2018-11-06T12:32:03.569Z,24.90
2018-11-06T12:34:32.641Z,24.90
2018-11-06T12:37:02.548Z,25.00
2018-11-06T12:39:32.105Z,25.00
2018-11-06T12:42:01.355Z,25.10
2018-11-06T12:44:30.491Z,25.10
2018-11-06T12:46:59.576Z,25.10
2018-11-06T12:49:28.451Z,25.20
2018-11-06T12:51:57.473Z,25.20
2018-11-06T12:54:26.797Z,25.30
2018-11-06T12:56:55.749Z,25.40
2018-11-06T12:59:24.952Z,25.40
2018-11-06T13:01:53.932Z,25.50
2018-11-06T13:04:23.385Z,25.70
2018-11-06T13:06:52.587Z,25.80
2018-11-06T13:09:21.553Z,25.80
2018-11-06T13:11:50.784Z,25.90
2018-11-06T13:14:20.714Z,26.00
2018-11-06T13:16:49.782Z,26.00
2018-11-06T13:19:18.703Z,26.10
2018-11-06T13:21:47.977Z,26.20
2018-11-06T13:24:16.934Z,26.20
2018-11-06T13:26:46.372Z,26.20
2018-11-06T13:29:15.350Z,26.30
2018-11-06T13:31:44.558Z,26.40
2018-11-06T13:34:13.631Z,26.50
2018-11-06T13:36:43.035Z,26.60
2018-11-06T13:39:13.279Z,26.60
2018-11-06T13:41:43.335Z,26.60
2018-11-06T13:44:12.724Z,26.70
2018-11-06T13:46:41.837Z,26.80
2018-11-06T13:49:10.888Z,26.90
2018-11-06T13:51:39.903Z,27.00
2018-11-06T13:54:08.844Z,27.20
2018-11-06T13:56:38.885Z,27.30
2018-11-06T13:59:08.737Z,27.40
2018-11-06T14:01:37.668Z,27.50
2018-11-06T14:04:07.005Z,27.60
2018-11-06T14:06:37.727Z,27.70
2018-11-06T14:09:08.562Z,27.80
2018-11-06T14:11:37.492Z,27.90
2018-11-06T14:14:06.695Z,28.10
2018-11-06T14:16:35.617Z,28.20
2018-11-06T14:19:04.521Z,28.40
2018-11-06T14:21:34.786Z,28.50
2018-11-06T14:24:03.762Z,28.70
2018-11-06T14:26:33.052Z,28.90
2018-11-06T14:29:02.450Z,28.90
2018-11-06T14:31:31.948Z,29.00
2018-11-06T14:34:01.462Z,29.20
2018-11-06T14:36:30.527Z,29.30
2018-11-06T14:38:59.463Z,29.40
2018-11-06T14:41:28.350Z,29.60
2018-11-06T14:43:57.266Z,29.80
2018-11-06T14:46:26.527Z,29.90
2018-11-06T14:48:55.828Z,30.10
2018-11-06T14:51:24.851Z,30.40
2018-11-06T14:53:53.771Z,30.70
2018-11-06T14:56:22.690Z,31.00
2018-11-06T14:58:58.296Z,31.30
2018-11-06T15:01:27.544Z,31.60
2018-11-06T15:03:56.482Z,31.90
2018-11-06T15:06:26.331Z,32.20
2018-11-06T15:08:55.248Z,32.60
2018-11-06T15:11:24.150Z,33.10
2018-11-06T15:13:53.041Z,33.20
2018-11-06T15:16:21.970Z,33.70
2018-11-06T15:18:50.960Z,34.00
2018-11-06T15:21:20.212Z,34.10
2018-11-06T15:23:49.152Z,34.40
2018-11-06T15:26:18.415Z,34.80
2018-11-06T15:28:47.337Z,35.00
2018-11-06T15:31:16.270Z,35.30
2018-11-06T15:33:45.380Z,35.60
2018-11-06T15:36:15.902Z,35.90
2018-11-06T15:38:44.897Z,36.20
2018-11-06T15:41:13.986Z,36.30
2018-11-06T15:43:43.153Z,36.60
2018-11-06T15:46:12.391Z,36.80
2018-11-06T15:48:41.521Z,36.80
2018-11-06T15:51:10.396Z,36.80
2018-11-06T15:53:39.628Z,36.80
2018-11-06T15:56:08.590Z,36.90
2018-11-06T15:58:37.539Z,36.90
2018-11-06T16:01:07.083Z,37.10
2018-11-06T16:03:36.116Z,37.20
2018-11-06T16:06:05.202Z,37.20
2018-11-06T16:08:34.128Z,37.20
2018-11-06T16:11:04.237Z,37.20
2018-11-06T16:13:36.295Z,37.40
2018-11-06T16:16:07.592Z,37.20
2018-11-06T16:18:37.943Z,37.20
2018-11-06T16:21:09.483Z,37.10
2018-11-06T16:23:41.031Z,37.10
2018-11-06T16:26:14.356Z,37.20
2018-11-06T16:28:48.371Z,37.20
2018-11-06T16:31:18.282Z,37.20
2018-11-06T16:33:48.145Z,37.40
2018-11-06T16:36:17.204Z,37.40
2018-11-06T16:38:46.139Z,37.40
2018-11-06T16:41:15.107Z,37.40
2018-11-06T16:43:44.831Z,37.50
2018-11-06T16:46:13.775Z,37.60
2018-11-06T16:48:42.720Z,37.60
2018-11-06T16:51:11.603Z,37.80
2018-11-06T16:53:40.857Z,37.90
2018-11-06T16:56:09.806Z,37.90
2018-11-06T16:58:38.718Z,38.10
2018-11-06T17:01:07.895Z,38.10
2018-11-06T17:03:36.682Z,38.10
2018-11-06T17:06:06.690Z,38.40
2018-11-06T17:08:35.672Z,38.40
2018-11-06T17:11:05.066Z,38.50
2018-11-06T17:13:34.202Z,38.80
2018-11-06T17:16:03.339Z,39.00
2018-11-06T17:18:33.072Z,39.10
2018-11-06T17:21:02.943Z,39.30
2018-11-06T17:23:31.861Z,39.30
2018-11-06T17:26:00.825Z,39.60
2018-11-06T17:28:29.753Z,39.70
2018-11-06T17:30:58.965Z,39.90
2018-11-06T17:33:28.223Z,40.00
2018-11-06T17:35:57.518Z,40.00
2018-11-06T17:38:26.864Z,40.30
2018-11-06T17:40:56.302Z,40.30
2018-11-06T17:43:25.240Z,40.30
2018-11-06T17:45:54.398Z,40.30
2018-11-06T17:48:23.652Z,40.30
2018-11-06T17:50:53.574Z,38.50
2018-11-06T17:53:22.572Z,39.90
2018-11-06T17:55:52.134Z,41.20
2018-11-06T17:58:21.451Z,43.00
2018-11-06T18:00:50.566Z,44.00
2018-11-06T18:03:22.971Z,45.00
2018-11-06T18:05:52.156Z,45.90
2018-11-06T18:08:21.274Z,46.80
2018-11-06T18:10:50.208Z,47.30
2018-11-06T18:13:19.155Z,47.50
2018-11-06T18:15:48.046Z,48.10
2018-11-06T18:18:16.949Z,48.90
2018-11-06T18:20:46.202Z,48.60
2018-11-06T18:23:15.177Z,48.30
2018-11-06T18:25:44.691Z,49.50
2018-11-06T18:28:14.798Z,49.90
2018-11-06T18:30:44.285Z,50.50
2018-11-06T18:33:13.827Z,52.00
2018-11-06T18:35:42.718Z,51.70
2018-11-06T18:38:11.630Z,53.80
2018-11-06T18:40:40.523Z,54.80
2018-11-06T18:43:09.461Z,55.50
2018-11-06T18:45:38.947Z,56.30
2018-11-06T18:48:08.290Z,57.30
2018-11-06T18:50:37.641Z,57.90
2018-11-06T18:53:06.884Z,57.70
2018-11-06T18:55:36.409Z,58.00
2018-11-06T18:58:05.790Z,58.30
2018-11-06T19:00:34.924Z,58.30
2018-11-06T19:03:04.661Z,58.90
2018-11-06T19:05:33.765Z,60.00
2018-11-06T19:08:02.954Z,61.20
2018-11-06T19:10:32.197Z,61.30
2018-11-06T19:13:01.286Z,60.60
2018-11-06T19:15:30.748Z,60.40
2018-11-06T19:18:00.033Z,59.10
2018-11-06T19:20:29.315Z,58.20
2018-11-06T19:22:58.465Z,57.40
2018-11-06T19:25:27.898Z,56.60
2018-11-06T19:27:57.385Z,55.50
2018-11-06T19:30:26.416Z,54.90
2018-11-06T19:32:56.047Z,54.20
2018-11-06T19:35:25.251Z,53.90
2018-11-06T19:37:54.232Z,53.60
2018-11-06T19:40:23.273Z,53.20
2018-11-06T19:42:52.583Z,52.90
2018-11-06T19:45:22.755Z,52.40
2018-11-06T19:47:51.702Z,52.30
2018-11-06T19:50:20.739Z,52.30
2018-11-06T19:52:49.717Z,52.30
2018-11-06T19:55:19.183Z,52.30
2018-11-06T19:57:48.091Z,52.10
2018-11-06T20:00:18.533Z,51.80
2018-11-06T20:02:48.628Z,51.70
2018-11-06T20:05:17.888Z,52.00
2018-11-06T20:07:47.594Z,51.80
2018-11-06T20:10:18.155Z,51.70
2018-11-06T20:12:48.495Z,51.80
2018-11-06T20:15:18.296Z,51.80
2018-11-06T20:17:47.457Z,51.70
2018-11-06T20:20:19.857Z,51.80
2018-11-06T20:22:48.808Z,51.70
2018-11-06T20:25:17.802Z,51.70
2018-11-06T20:27:47.324Z,51.50
2018-11-06T20:30:18.541Z,51.40
2018-11-06T20:32:47.487Z,51.20
2018-11-06T20:35:16.900Z,50.90
2018-11-06T20:37:45.955Z,51.20
2018-11-06T20:40:18.374Z,51.20
2018-11-06T20:42:47.830Z,51.50
2018-11-06T20:45:18.102Z,51.50
2018-11-06T20:47:47.127Z,51.50
2018-11-06T20:50:18.699Z,51.70
2018-11-06T20:52:48.146Z,51.80
2018-11-06T20:55:17.670Z,51.80
2018-11-06T20:57:47.263Z,52.00
2018-11-06T21:00:21.260Z,52.10
2018-11-06T21:02:51.274Z,52.00
2018-11-06T21:05:26.464Z,51.80
2018-11-06T21:07:55.915Z,51.70
2018-11-06T21:10:26.907Z,51.70
2018-11-06T21:12:55.846Z,52.70
2018-11-06T21:15:25.353Z,53.80
2018-11-06T21:17:54.520Z,54.30
2018-11-06T21:20:24.381Z,54.80
2018-11-06T21:22:53.593Z,54.90
2018-11-06T21:25:23.097Z,55.40
2018-11-06T21:27:52.302Z,55.50
2018-11-06T21:30:21.779Z,55.80
2018-11-06T21:32:52.202Z,56.00
2018-11-06T21:35:21.162Z,56.30
2018-11-06T21:37:51.399Z,56.40
2018-11-06T21:40:22.431Z,56.60
2018-11-06T21:42:53.020Z,56.70
2018-11-06T21:45:23.456Z,57.30
2018-11-06T21:47:53.922Z,58.00
2018-11-06T21:50:24.543Z,59.70
2018-11-06T21:52:57.865Z,61.00
2018-11-06T21:55:28.045Z,62.10
2018-11-06T21:57:57.944Z,63.30
2018-11-06T22:00:30.070Z,64.00
2018-11-06T22:02:59.817Z,64.60
2018-11-06T22:05:30.513Z,64.60
2018-11-06T22:08:01.483Z,64.60
2018-11-06T22:10:31.665Z,64.60
2018-11-06T22:13:02.180Z,64.00
2018-11-06T22:15:36.752Z,63.70
2018-11-06T22:18:07.673Z,63.70
2018-11-06T22:20:39.934Z,63.70
2018-11-06T22:23:16.330Z,64.00
2018-11-06T22:25:47.968Z,64.60
2018-11-06T22:28:24.148Z,64.80
2018-11-06T22:30:53.798Z,64.80
2018-11-06T22:33:24.373Z,64.20
2018-11-06T22:35:54.466Z,64.00
2018-11-06T22:38:24.891Z,63.70
2018-11-06T22:40:55.722Z,62.80
2018-11-06T22:43:25.944Z,61.70
2018-11-06T22:45:55.436Z,60.40
2018-11-06T22:48:25.681Z,59.70
2018-11-06T22:50:55.374Z,58.80
2018-11-06T22:53:25.382Z,58.30
2018-11-06T22:55:55.707Z,57.90
2018-11-06T22:58:25.832Z,57.60
2018-11-06T23:01:10.406Z,57.30
2018-11-06T23:03:57.611Z,57.20
2018-11-06T23:09:26.203Z,56.40
2018-11-06T23:11:55.122Z,56.40
2018-11-06T23:14:24.225Z,56.10
2018-11-06T23:16:53.208Z,56.10
2018-11-06T23:19:22.319Z,55.50
2018-11-06T23:21:51.250Z,55.20
2018-11-06T23:24:21.393Z,55.20
2018-11-06T23:26:51.807Z,54.90
2018-11-06T23:29:24.218Z,54.80
2018-11-06T23:31:55.236Z,54.50
2018-11-06T23:34:24.383Z,54.60
2018-11-06T23:36:55.559Z,54.80
2018-11-06T23:39:26.874Z,54.80
2018-11-06T23:41:56.976Z,54.60
2018-11-06T23:44:29.037Z,54.60
2018-11-06T23:47:00.203Z,54.80
2018-11-06T23:49:31.708Z,54.90
2018-11-06T23:52:02.817Z,54.90
2018-11-06T23:54:34.109Z,55.10
2018-11-06T23:57:05.671Z,55.20
2018-11-06T23:59:36.041Z,55.40
